createdAt,value
2023-05-20T00:00:16.826Z,22.47
2023-05-20T00:01:17.147Z,22.46
2023-05-20T00:02:17.494Z,22.47
2023-05-20T00:03:17.975Z,22.46
2023-05-20T00:04:18.461Z,22.47
2023-05-20T00:05:18.341Z,22.46
2023-05-20T00:06:18.641Z,22.46
2023-05-20T00:07:18.951Z,22.47
2023-05-20T00:08:19.276Z,22.47
2023-05-20T00:09:19.580Z,22.47
2023-05-20T00:10:19.877Z,22.47
2023-05-20T00:11:20.199Z,22.47
2023-05-20T00:12:20.542Z,22.47
2023-05-20T00:13:20.835Z,22.47
2023-05-20T00:14:21.127Z,22.51
2023-05-20T00:15:22.393Z,22.49
2023-05-20T00:16:21.824Z,22.51
2023-05-20T00:17:22.111Z,22.51
2023-05-20T00:18:22.434Z,22.51
2023-05-20T00:19:22.884Z,22.51
2023-05-20T00:20:23.006Z,22.52
2023-05-20T00:21:23.332Z,22.52
2023-05-20T00:22:23.629Z,22.54
2023-05-20T00:23:23.957Z,22.52
2023-05-20T00:24:24.256Z,22.55
2023-05-20T00:25:24.572Z,22.55
2023-05-20T00:26:24.879Z,22.57
2023-05-20T00:27:25.174Z,22.55
2023-05-20T00:28:25.484Z,22.57
2023-05-20T00:29:25.807Z,22.58
2023-05-20T00:30:26.131Z,22.58
2023-05-20T00:31:26.448Z,22.58
2023-05-20T00:32:27.007Z,22.60
2023-05-20T00:33:27.052Z,22.60
2023-05-20T00:34:27.367Z,22.60
2023-05-20T00:35:27.671Z,22.60
2023-05-20T00:36:27.980Z,22.60
2023-05-20T00:37:28.275Z,22.61
2023-05-20T00:38:28.603Z,22.62
2023-05-20T00:39:28.904Z,22.64
2023-05-20T00:40:29.218Z,22.64
2023-05-20T00:41:29.566Z,22.64
2023-05-20T00:42:29.840Z,22.65
2023-05-20T00:43:30.142Z,22.65
2023-05-20T00:44:30.457Z,22.67
2023-05-20T00:45:30.759Z,22.67
2023-05-20T00:46:31.161Z,22.67
2023-05-20T00:47:31.410Z,22.67
2023-05-20T00:48:31.697Z,22.68
2023-05-20T00:49:32.004Z,22.68
2023-05-20T00:50:32.314Z,22.72
2023-05-20T00:51:32.606Z,22.70
2023-05-20T00:52:32.915Z,22.72
2023-05-20T00:53:33.233Z,22.72
2023-05-20T00:54:33.545Z,22.72
2023-05-20T00:55:34.001Z,22.72
2023-05-20T00:56:34.227Z,22.73
2023-05-20T00:57:34.533Z,22.72
2023-05-20T00:58:34.895Z,22.75
2023-05-20T00:59:35.156Z,22.73
2023-05-20T01:00:35.506Z,22.75
2023-05-20T01:01:35.828Z,22.75
2023-05-20T01:02:36.214Z,22.73
2023-05-20T01:03:36.462Z,22.76
2023-05-20T01:04:36.734Z,22.75
2023-05-20T01:05:39.158Z,22.76
2023-05-20T01:06:37.333Z,22.76
2023-05-20T01:07:37.645Z,22.76
2023-05-20T01:08:37.951Z,22.76
2023-05-20T01:09:38.244Z,22.76
2023-05-20T01:10:38.563Z,22.76
2023-05-20T01:11:38.877Z,22.77
2023-05-20T01:12:39.194Z,22.79
2023-05-20T01:13:39.523Z,22.79
2023-05-20T01:14:39.835Z,22.79
2023-05-20T01:15:40.175Z,22.79
2023-05-20T01:16:40.570Z,22.79
2023-05-20T01:17:40.741Z,22.80
2023-05-20T01:18:41.113Z,22.80
2023-05-20T01:19:41.265Z,22.82
2023-05-20T01:20:41.579Z,22.80
2023-05-20T01:21:41.879Z,22.82
2023-05-20T01:22:42.164Z,22.82
2023-05-20T01:23:42.464Z,22.83
2023-05-20T01:24:42.775Z,22.83
2023-05-20T01:25:43.083Z,22.82
2023-05-20T01:26:43.398Z,22.82
2023-05-20T01:27:43.709Z,22.82
2023-05-20T01:28:44.023Z,22.83
2023-05-20T01:29:44.333Z,22.83
2023-05-20T01:30:44.639Z,22.83
2023-05-20T01:31:44.925Z,22.85
2023-05-20T01:32:45.288Z,22.85
2023-05-20T01:33:46.472Z,22.85
2023-05-20T01:34:45.833Z,22.83
2023-05-20T01:35:46.125Z,22.85
2023-05-20T01:36:46.433Z,22.85
2023-05-20T01:37:46.702Z,22.85
2023-05-20T01:38:47.061Z,22.85
2023-05-20T01:39:47.353Z,22.86
2023-05-20T01:40:47.732Z,22.86
2023-05-20T01:41:48.014Z,22.86
2023-05-20T01:42:48.296Z,22.86
2023-05-20T01:43:48.608Z,22.85
2023-05-20T01:44:48.913Z,22.86
2023-05-20T01:45:49.229Z,22.86
2023-05-20T01:46:49.514Z,22.86
2023-05-20T01:47:49.822Z,22.86
2023-05-20T01:48:50.110Z,22.90
2023-05-20T01:49:50.407Z,22.88
2023-05-20T01:50:50.727Z,22.88
2023-05-20T01:51:51.026Z,22.90
2023-05-20T01:52:51.357Z,22.88
2023-05-20T01:53:51.681Z,22.88
2023-05-20T01:54:52.005Z,22.90
2023-05-20T01:55:52.300Z,22.88
2023-05-20T01:56:52.630Z,22.88
2023-05-20T01:57:52.920Z,22.88
2023-05-20T01:58:53.199Z,22.90
2023-05-20T01:59:53.514Z,22.88
2023-05-20T02:00:53.900Z,22.90
2023-05-20T02:01:54.179Z,22.90
2023-05-20T02:02:54.506Z,22.90
2023-05-20T02:03:54.786Z,22.90
2023-05-20T02:04:55.140Z,22.90
2023-05-20T02:05:55.464Z,22.90
2023-05-20T02:06:55.767Z,22.90
2023-05-20T02:07:56.073Z,22.90
2023-05-20T02:08:56.417Z,22.90
2023-05-20T02:09:56.705Z,22.91
2023-05-20T02:10:56.994Z,22.92
2023-05-20T02:11:57.294Z,22.91
2023-05-20T02:12:57.615Z,22.91
2023-05-20T02:13:57.921Z,22.91
2023-05-20T02:14:58.235Z,22.91
2023-05-20T02:15:58.620Z,22.92
2023-05-20T02:16:58.917Z,22.92
2023-05-20T02:17:59.267Z,22.91
2023-05-20T02:18:59.629Z,22.92
2023-05-20T02:19:59.898Z,22.92
2023-05-20T02:21:00.203Z,22.92
2023-05-20T02:22:00.515Z,22.92
2023-05-20T02:23:00.848Z,22.92
2023-05-20T02:24:01.171Z,22.92
2023-05-20T02:25:01.478Z,22.92
2023-05-20T02:26:01.777Z,22.94
2023-05-20T02:27:02.169Z,22.94
2023-05-20T02:28:02.426Z,22.94
2023-05-20T02:29:02.748Z,22.94
2023-05-20T02:30:03.045Z,22.94
2023-05-20T02:31:03.364Z,22.94
2023-05-20T02:32:03.689Z,22.94
2023-05-20T02:33:04.015Z,22.95
2023-05-20T02:34:04.355Z,22.95
2023-05-20T02:35:04.659Z,22.95
2023-05-20T02:36:04.992Z,22.95
2023-05-20T02:37:05.282Z,22.97
2023-05-20T02:38:05.600Z,22.94
2023-05-20T02:39:05.921Z,22.95
2023-05-20T02:40:06.221Z,22.95
2023-05-20T02:41:06.538Z,22.95
2023-05-20T02:42:06.798Z,22.97
2023-05-20T02:43:07.104Z,22.95
2023-05-20T02:44:07.429Z,22.97
2023-05-20T02:45:07.723Z,22.97
2023-05-20T02:46:08.063Z,22.97
2023-05-20T02:47:08.347Z,22.97
2023-05-20T02:48:08.740Z,22.97
2023-05-20T02:49:08.994Z,22.98
2023-05-20T02:50:09.310Z,22.95
2023-05-20T02:51:09.626Z,22.97
2023-05-20T02:52:09.976Z,22.97
2023-05-20T02:53:10.279Z,22.97
2023-05-20T02:54:10.598Z,22.97
2023-05-20T02:55:10.898Z,22.98
2023-05-20T02:56:11.232Z,22.97
2023-05-20T02:57:11.527Z,22.97
2023-05-20T02:58:11.854Z,22.97
2023-05-20T02:59:12.154Z,22.97
2023-05-20T03:00:12.477Z,22.97
2023-05-20T03:01:12.829Z,22.97
2023-05-20T03:02:13.139Z,22.98
2023-05-20T03:03:13.410Z,22.97
2023-05-20T03:04:13.787Z,22.98
2023-05-20T03:05:14.059Z,22.98
2023-05-20T03:06:14.374Z,22.98
2023-05-20T03:07:14.691Z,22.98
2023-05-20T03:08:14.996Z,22.97
2023-05-20T03:09:15.310Z,22.98
2023-05-20T03:10:15.613Z,23.00
2023-05-20T03:11:15.906Z,23.00
2023-05-20T03:12:16.267Z,23.00
2023-05-20T03:13:16.533Z,23.00
2023-05-20T03:14:16.860Z,23.00
2023-05-20T03:15:17.156Z,23.00
2023-05-20T03:16:17.483Z,22.98
2023-05-20T03:17:17.763Z,22.98
2023-05-20T03:18:18.075Z,22.98
2023-05-20T03:19:18.397Z,23.00
2023-05-20T03:20:18.707Z,23.00
2023-05-20T03:21:18.948Z,23.00
2023-05-20T03:22:19.262Z,23.00
2023-05-20T03:23:19.559Z,23.00
2023-05-20T03:24:19.883Z,23.00
2023-05-20T03:25:20.179Z,23.00
2023-05-20T03:26:20.567Z,23.00
2023-05-20T03:27:20.829Z,23.01
2023-05-20T03:28:21.150Z,23.01
2023-05-20T03:29:21.423Z,23.00
2023-05-20T03:30:21.735Z,23.01
2023-05-20T03:31:22.097Z,23.01
2023-05-20T03:32:22.438Z,23.00
2023-05-20T03:33:22.743Z,23.00
2023-05-20T03:34:23.032Z,23.00
2023-05-20T03:35:23.314Z,23.01
2023-05-20T03:36:23.642Z,23.01
2023-05-20T03:37:24.094Z,23.00
2023-05-20T03:38:24.249Z,23.02
2023-05-20T03:39:24.565Z,23.01
2023-05-20T03:40:24.884Z,23.01
2023-05-20T03:41:25.192Z,23.01
2023-05-20T03:42:25.521Z,23.02
2023-05-20T03:43:25.839Z,23.04
2023-05-20T03:44:26.165Z,23.02
2023-05-20T03:45:26.487Z,23.02
2023-05-20T03:46:26.833Z,23.02
2023-05-20T03:47:27.182Z,23.02
2023-05-20T03:48:27.379Z,23.02
2023-05-20T03:49:27.695Z,23.04
2023-05-20T03:50:28.025Z,23.02
2023-05-20T03:51:28.288Z,23.04
2023-05-20T03:52:28.616Z,23.04
2023-05-20T03:53:29.872Z,23.05
2023-05-20T03:54:29.250Z,23.04
2023-05-20T03:55:29.553Z,23.04
2023-05-20T03:56:29.878Z,23.04
2023-05-20T03:57:30.193Z,23.04
2023-05-20T03:58:30.514Z,23.04
2023-05-20T03:59:30.829Z,23.05
2023-05-20T04:00:31.154Z,23.04
2023-05-20T04:01:31.461Z,23.04
2023-05-20T04:02:31.854Z,23.05
2023-05-20T04:03:32.120Z,23.05
2023-05-20T04:04:32.359Z,23.05
2023-05-20T04:05:32.741Z,23.05
2023-05-20T04:06:32.942Z,23.05
2023-05-20T04:07:33.240Z,23.05
2023-05-20T04:08:33.568Z,23.05
2023-05-20T04:09:33.890Z,23.05
2023-05-20T04:10:34.208Z,23.07
2023-05-20T04:11:34.442Z,23.07
2023-05-20T04:12:34.767Z,23.07
2023-05-20T04:13:35.097Z,23.07
2023-05-20T04:14:35.429Z,23.07
2023-05-20T04:15:35.965Z,23.07
2023-05-20T04:16:36.059Z,23.07
2023-05-20T04:17:36.290Z,23.09
2023-05-20T04:18:36.589Z,23.09
2023-05-20T04:19:36.893Z,23.07
2023-05-20T04:20:37.224Z,23.09
2023-05-20T04:21:37.547Z,23.09
2023-05-20T04:22:37.875Z,23.09
2023-05-20T04:23:38.195Z,23.09
2023-05-20T04:24:38.469Z,23.09
2023-05-20T04:25:39.058Z,23.09
2023-05-20T04:26:39.147Z,23.09
2023-05-20T04:27:39.348Z,23.09
2023-05-20T04:28:39.681Z,23.09
2023-05-20T04:29:40.012Z,23.09
2023-05-20T04:30:40.328Z,23.10
2023-05-20T04:31:40.722Z,23.10
2023-05-20T04:32:41.013Z,23.10
2023-05-20T04:33:41.354Z,23.10
2023-05-20T04:34:41.680Z,23.12
2023-05-20T04:35:41.989Z,23.12
2023-05-20T04:36:42.320Z,23.12
2023-05-20T04:37:42.739Z,23.12
2023-05-20T04:38:42.881Z,23.12
2023-05-20T04:39:43.216Z,23.12
2023-05-20T04:40:43.560Z,23.12
2023-05-20T04:41:43.872Z,23.12
2023-05-20T04:42:44.204Z,23.12
2023-05-20T04:43:44.514Z,23.13
2023-05-20T04:44:44.862Z,23.12
2023-05-20T04:45:45.220Z,23.13
2023-05-20T04:46:45.512Z,23.13
2023-05-20T04:47:45.984Z,23.13
2023-05-20T04:48:46.223Z,23.15
2023-05-20T04:49:46.580Z,23.13
2023-05-20T04:50:46.871Z,23.13
2023-05-20T04:51:47.176Z,23.15
2023-05-20T04:52:47.510Z,23.15
2023-05-20T04:53:47.822Z,23.15
2023-05-20T04:54:48.157Z,23.15
2023-05-20T04:55:48.466Z,23.16
2023-05-20T04:56:48.788Z,23.17
2023-05-20T04:57:49.107Z,23.17
2023-05-20T04:58:49.436Z,23.16
2023-05-20T04:59:49.762Z,23.17
2023-05-20T05:00:50.082Z,23.19
2023-05-20T05:01:50.420Z,23.17
2023-05-20T05:02:50.763Z,23.17
2023-05-20T05:03:50.956Z,23.19
2023-05-20T05:04:51.346Z,23.20
2023-05-20T05:05:51.641Z,23.19
2023-05-20T05:06:51.956Z,23.20
2023-05-20T05:07:52.273Z,23.20
2023-05-20T05:08:52.611Z,23.19
2023-05-20T05:09:52.938Z,23.20
2023-05-20T05:10:53.226Z,23.22
2023-05-20T05:11:53.543Z,23.20
2023-05-20T05:12:53.883Z,23.23
2023-05-20T05:13:54.202Z,23.23
2023-05-20T05:14:54.527Z,23.23
2023-05-20T05:15:54.872Z,23.23
2023-05-20T05:16:55.762Z,23.25
2023-05-20T05:17:55.556Z,23.27
2023-05-20T05:18:55.777Z,23.27
2023-05-20T05:19:56.130Z,23.27
2023-05-20T05:20:56.455Z,23.28
2023-05-20T05:21:56.760Z,23.31
2023-05-20T05:22:57.087Z,23.31
2023-05-20T05:23:58.385Z,23.32
2023-05-20T05:24:57.726Z,23.33
2023-05-20T05:25:58.063Z,23.31
2023-05-20T05:26:58.384Z,23.32
2023-05-20T05:27:58.714Z,23.35
2023-05-20T05:28:59.076Z,23.35
2023-05-20T05:29:59.393Z,23.35
2023-05-20T05:30:59.740Z,23.36
2023-05-20T05:32:00.130Z,23.36
2023-05-20T05:33:00.515Z,23.38
2023-05-20T05:34:00.724Z,23.38
2023-05-20T05:35:01.054Z,23.38
2023-05-20T05:36:01.363Z,23.39
2023-05-20T05:37:01.698Z,23.38
2023-05-20T05:38:02.012Z,23.39
2023-05-20T05:39:02.343Z,23.40
2023-05-20T05:40:02.672Z,23.40
2023-05-20T05:41:03.012Z,23.40
2023-05-20T05:42:03.320Z,23.40
2023-05-20T05:43:03.619Z,23.40
2023-05-20T05:44:03.898Z,23.40
2023-05-20T05:45:04.179Z,23.40
2023-05-20T05:46:04.495Z,23.43
2023-05-20T05:47:04.870Z,23.42
2023-05-20T05:48:05.224Z,23.42
2023-05-20T05:49:05.432Z,23.42
2023-05-20T05:50:05.749Z,23.42
2023-05-20T05:51:06.096Z,23.42
2023-05-20T05:52:06.414Z,23.42
2023-05-20T05:53:06.773Z,23.42
2023-05-20T05:54:06.951Z,23.43
2023-05-20T05:55:07.273Z,23.43
2023-05-20T05:56:07.571Z,23.43
2023-05-20T05:57:07.907Z,23.43
2023-05-20T05:58:08.178Z,23.43
2023-05-20T05:59:08.500Z,23.42
2023-05-20T06:00:08.825Z,23.43
2023-05-20T06:01:09.151Z,23.43
2023-05-20T06:02:09.403Z,23.43
2023-05-20T06:03:09.812Z,23.43
2023-05-20T06:04:10.005Z,23.43
2023-05-20T06:05:10.330Z,23.43
2023-05-20T06:06:10.639Z,23.43
2023-05-20T06:07:10.972Z,23.46
2023-05-20T06:08:11.289Z,23.43
2023-05-20T06:09:11.622Z,23.43
2023-05-20T06:10:11.946Z,23.43
2023-05-20T06:11:12.302Z,23.42
2023-05-20T06:12:13.949Z,23.40
2023-05-20T06:13:12.799Z,23.42
2023-05-20T06:14:13.131Z,23.42
2023-05-20T06:15:13.444Z,23.42
2023-05-20T06:16:13.818Z,23.42
2023-05-20T06:17:14.121Z,23.43
2023-05-20T06:18:14.436Z,23.42
2023-05-20T06:19:14.805Z,23.42
2023-05-20T06:20:15.087Z,23.42
2023-05-20T06:21:15.372Z,23.43
2023-05-20T06:22:15.695Z,23.42
2023-05-20T06:23:16.037Z,23.42
2023-05-20T06:24:16.336Z,23.39
2023-05-20T06:25:16.655Z,23.39
2023-05-20T06:26:16.973Z,23.39
2023-05-20T06:27:17.306Z,23.36
2023-05-20T06:28:17.623Z,23.35
2023-05-20T06:29:17.962Z,23.36
2023-05-20T06:30:18.180Z,23.35
2023-05-20T06:31:18.521Z,23.35
2023-05-20T06:32:18.833Z,23.35
2023-05-20T06:33:19.172Z,23.33
2023-05-20T06:34:19.477Z,23.35
2023-05-20T06:35:19.816Z,23.36
2023-05-20T06:36:20.145Z,23.36
2023-05-20T06:37:20.503Z,23.35
2023-05-20T06:38:20.870Z,23.36
2023-05-20T06:39:21.084Z,23.36
2023-05-20T06:40:21.412Z,23.39
2023-05-20T06:41:21.722Z,23.40
2023-05-20T06:42:22.063Z,23.40
2023-05-20T06:43:22.386Z,23.43
2023-05-20T06:44:22.715Z,23.42
2023-05-20T06:45:23.043Z,23.46
2023-05-20T06:46:23.375Z,23.48
2023-05-20T06:47:23.708Z,23.48
2023-05-20T06:48:24.013Z,23.48
2023-05-20T06:49:24.346Z,23.50
2023-05-20T06:50:24.658Z,23.51
2023-05-20T06:51:24.983Z,23.53
2023-05-20T06:52:25.309Z,23.51
2023-05-20T06:53:25.628Z,23.53
2023-05-20T06:54:25.988Z,23.54
2023-05-20T06:55:26.321Z,23.54
2023-05-20T06:56:26.627Z,23.54
2023-05-20T06:57:26.951Z,23.54
2023-05-20T06:58:27.255Z,23.55
2023-05-20T06:59:27.561Z,23.57
2023-05-20T07:00:27.871Z,23.58
2023-05-20T07:01:28.192Z,23.58
2023-05-20T07:02:28.520Z,23.58
2023-05-20T07:03:28.823Z,23.60
2023-05-20T07:04:29.130Z,23.57
2023-05-20T07:05:29.431Z,23.58
2023-05-20T07:06:29.736Z,23.61
2023-05-20T07:07:30.050Z,23.63
2023-05-20T07:08:30.388Z,23.63
2023-05-20T07:09:30.710Z,23.65
2023-05-20T07:10:31.058Z,23.65
2023-05-20T07:11:31.339Z,23.66
2023-05-20T07:12:31.688Z,23.69
2023-05-20T07:13:32.023Z,23.69
2023-05-20T07:14:32.355Z,23.69
2023-05-20T07:15:33.031Z,23.73
2023-05-20T07:16:33.120Z,23.73
2023-05-20T07:17:33.270Z,23.73
2023-05-20T07:18:33.602Z,23.75
2023-05-20T07:19:33.940Z,23.78
2023-05-20T07:20:34.236Z,23.78
2023-05-20T07:21:34.553Z,23.79
2023-05-20T07:22:34.882Z,23.79
2023-05-20T07:23:35.189Z,23.79
2023-05-20T07:24:35.453Z,23.78
2023-05-20T07:25:35.907Z,23.80
2023-05-20T07:26:36.090Z,23.79
2023-05-20T07:27:36.373Z,23.83
2023-05-20T07:28:36.687Z,23.83
2023-05-20T07:29:37.003Z,23.83
2023-05-20T07:30:37.315Z,23.84
2023-05-20T07:31:37.708Z,23.83
2023-05-20T07:32:37.993Z,23.84
2023-05-20T07:33:38.274Z,23.83
2023-05-20T07:34:38.585Z,23.83
2023-05-20T07:35:38.852Z,23.85
2023-05-20T07:36:39.186Z,23.87
2023-05-20T07:37:39.522Z,23.87
2023-05-20T07:38:41.286Z,23.90
2023-05-20T07:39:41.125Z,23.88
2023-05-20T07:40:40.371Z,23.88
2023-05-20T07:41:40.667Z,23.87
2023-05-20T07:42:40.980Z,23.88
2023-05-20T07:43:41.286Z,23.88
2023-05-20T07:44:41.622Z,23.90
2023-05-20T07:45:41.961Z,23.90
2023-05-20T07:46:42.328Z,23.91
2023-05-20T07:47:42.521Z,23.91
2023-05-20T07:48:42.812Z,23.91
2023-05-20T07:49:43.111Z,23.91
2023-05-20T07:50:43.437Z,23.90
2023-05-20T07:51:43.743Z,23.90
2023-05-20T07:52:55.290Z,23.88
2023-05-20T07:53:45.353Z,23.90
2023-05-20T07:54:44.618Z,23.90
2023-05-20T07:55:44.898Z,23.88
2023-05-20T07:56:45.225Z,23.90
2023-05-20T07:57:45.525Z,23.90
2023-05-20T07:58:45.840Z,23.91
2023-05-20T07:59:46.115Z,23.88
2023-05-20T08:00:46.420Z,23.88
2023-05-20T08:01:46.740Z,23.90
2023-05-20T08:02:47.129Z,23.90
2023-05-20T08:03:47.378Z,23.90
2023-05-20T08:04:47.550Z,23.90
2023-05-20T08:05:47.864Z,23.90
2023-05-20T08:06:48.194Z,23.90
2023-05-20T08:07:48.503Z,23.90
2023-05-20T08:08:48.815Z,23.88
2023-05-20T08:09:49.125Z,23.90
2023-05-20T08:10:49.441Z,23.91
2023-05-20T08:11:49.738Z,23.90
2023-05-20T08:12:50.031Z,23.91
2023-05-20T08:13:50.331Z,23.94
2023-05-20T08:14:50.655Z,23.97
2023-05-20T08:15:50.963Z,23.98
2023-05-20T08:16:53.869Z,24.00
2023-05-20T08:17:51.660Z,24.00
2023-05-20T08:18:51.898Z,24.00
2023-05-20T08:19:52.113Z,24.05
2023-05-20T08:20:52.447Z,24.06
2023-05-20T08:21:52.755Z,24.05
2023-05-20T08:22:53.038Z,24.05
2023-05-20T08:23:53.336Z,24.06
2023-05-20T08:24:53.623Z,24.08
2023-05-20T08:25:53.940Z,24.08
2023-05-20T08:26:54.276Z,24.08
2023-05-20T08:27:54.567Z,24.08
2023-05-20T08:28:54.906Z,24.10
2023-05-20T08:29:55.206Z,24.10
2023-05-20T08:30:55.562Z,24.13
2023-05-20T08:31:55.830Z,24.13
2023-05-20T08:32:56.215Z,24.15
2023-05-20T08:33:56.375Z,24.15
2023-05-20T08:34:56.682Z,24.16
2023-05-20T08:35:56.996Z,24.16
2023-05-20T08:36:57.308Z,24.18
2023-05-20T08:37:57.595Z,24.21
2023-05-20T08:38:57.931Z,24.22
2023-05-20T08:39:58.228Z,24.24
2023-05-20T08:40:58.559Z,24.25
2023-05-20T08:41:58.874Z,24.25
2023-05-20T08:42:59.247Z,24.28
2023-05-20T08:43:59.400Z,24.30
2023-05-20T08:44:59.716Z,24.31
2023-05-20T08:46:00.077Z,24.32
2023-05-20T08:47:00.410Z,24.32
2023-05-20T08:48:00.646Z,24.32
2023-05-20T08:49:00.940Z,24.32
2023-05-20T08:50:01.251Z,24.32
2023-05-20T08:51:01.577Z,24.37
2023-05-20T08:52:01.899Z,24.40
2023-05-20T08:53:02.214Z,24.42
2023-05-20T08:54:02.535Z,24.43
2023-05-20T08:55:02.890Z,24.43
2023-05-20T08:56:03.763Z,24.45
2023-05-20T08:57:03.529Z,24.43
2023-05-20T08:58:03.828Z,24.45
2023-05-20T08:59:04.135Z,24.46
2023-05-20T09:00:04.444Z,24.47
2023-05-20T09:01:04.771Z,24.47
2023-05-20T09:02:05.069Z,24.49
2023-05-20T09:03:05.443Z,24.47
2023-05-20T09:04:05.605Z,24.47
2023-05-20T09:05:05.968Z,24.47
2023-05-20T09:06:06.122Z,24.47
2023-05-20T09:07:06.447Z,24.47
2023-05-20T09:08:06.725Z,24.47
2023-05-20T09:09:07.034Z,24.47
2023-05-20T09:10:07.331Z,24.47
2023-05-20T09:11:07.654Z,24.49
2023-05-20T09:12:07.941Z,24.50
2023-05-20T09:13:08.249Z,24.50
2023-05-20T09:14:08.554Z,24.49
2023-05-20T09:15:08.847Z,24.50
2023-05-20T09:16:09.196Z,24.50
2023-05-20T09:17:09.480Z,24.50
2023-05-20T09:18:09.832Z,24.50
2023-05-20T09:19:10.153Z,24.47
2023-05-20T09:20:10.397Z,24.50
2023-05-20T09:21:10.717Z,24.49
2023-05-20T09:22:11.014Z,24.49
2023-05-20T09:23:11.289Z,24.52
2023-05-20T09:24:11.522Z,24.50
2023-05-20T09:25:11.842Z,24.50
2023-05-20T09:26:12.160Z,24.50
2023-05-20T09:27:12.487Z,24.50
2023-05-20T09:28:12.821Z,24.53
2023-05-20T09:29:13.158Z,24.53
2023-05-20T09:30:13.402Z,24.57
2023-05-20T09:31:13.737Z,24.58
2023-05-20T09:32:14.025Z,24.60
2023-05-20T09:33:14.315Z,24.58
2023-05-20T09:34:14.627Z,24.60
2023-05-20T09:35:14.947Z,24.61
2023-05-20T09:36:16.666Z,24.60
2023-05-20T09:37:15.541Z,24.61
2023-05-20T09:38:15.850Z,24.61
2023-05-20T09:39:16.177Z,24.61
2023-05-20T09:40:16.485Z,24.62
2023-05-20T09:41:16.834Z,24.61
2023-05-20T09:42:17.131Z,24.62
2023-05-20T09:43:17.452Z,24.61
2023-05-20T09:44:17.735Z,24.62
2023-05-20T09:45:18.048Z,24.62
2023-05-20T09:46:18.384Z,24.62
2023-05-20T09:47:18.671Z,24.62
2023-05-20T09:48:18.969Z,24.61
2023-05-20T09:49:19.260Z,24.61
2023-05-20T09:50:19.562Z,24.62
2023-05-20T09:51:19.860Z,24.61
2023-05-20T09:52:21.418Z,24.61
2023-05-20T09:53:20.447Z,24.62
2023-05-20T09:54:20.755Z,24.62
2023-05-20T09:55:21.094Z,24.62
2023-05-20T09:56:21.384Z,24.62
2023-05-20T09:57:21.694Z,24.62
2023-05-20T09:58:22.036Z,24.62
2023-05-20T09:59:22.331Z,24.62
2023-05-20T10:00:22.628Z,24.62
2023-05-20T10:01:22.962Z,24.62
2023-05-20T10:02:23.329Z,24.60
2023-05-20T10:03:23.557Z,24.60
2023-05-20T10:04:23.701Z,24.60
2023-05-20T10:05:24.030Z,24.60
2023-05-20T10:06:24.328Z,24.60
2023-05-20T10:07:37.928Z,24.58
2023-05-20T10:08:25.922Z,24.57
2023-05-20T10:09:25.187Z,24.58
2023-05-20T10:10:25.479Z,24.57
2023-05-20T10:11:25.776Z,24.58
2023-05-20T10:12:26.047Z,24.58
2023-05-20T10:13:26.372Z,24.60
2023-05-20T10:14:26.683Z,24.58
2023-05-20T10:15:26.975Z,24.58
2023-05-20T10:16:27.308Z,24.57
2023-05-20T10:17:27.604Z,24.57
2023-05-20T10:18:27.887Z,24.57
2023-05-20T10:19:28.960Z,24.55
2023-05-20T10:20:28.488Z,24.57
2023-05-20T10:21:28.793Z,24.57
2023-05-20T10:22:29.082Z,24.55
2023-05-20T10:23:29.380Z,24.55
2023-05-20T10:24:29.684Z,24.55
2023-05-20T10:25:30.036Z,24.55
2023-05-20T10:26:30.224Z,24.53
2023-05-20T10:27:30.545Z,24.53
2023-05-20T10:28:30.812Z,24.52
2023-05-20T10:29:31.126Z,24.53
2023-05-20T10:30:31.430Z,24.52
2023-05-20T10:31:31.726Z,24.50
2023-05-20T10:32:32.171Z,24.50
2023-05-20T10:33:32.418Z,24.50
2023-05-20T10:34:32.588Z,24.49
2023-05-20T10:35:32.906Z,24.49
2023-05-20T10:36:33.216Z,24.49
2023-05-20T10:37:33.541Z,24.50
2023-05-20T10:38:33.834Z,24.50
2023-05-20T10:39:34.182Z,24.49
2023-05-20T10:40:34.753Z,24.49
2023-05-20T10:41:34.716Z,24.50
2023-05-20T10:42:35.054Z,24.47
2023-05-20T10:43:35.360Z,24.47
2023-05-20T10:44:35.657Z,24.49
2023-05-20T10:45:35.962Z,24.47
2023-05-20T10:46:53.948Z,24.46
2023-05-20T10:47:37.682Z,24.47
2023-05-20T10:48:36.878Z,24.46
2023-05-20T10:49:37.068Z,24.46
2023-05-20T10:50:37.409Z,24.46
2023-05-20T10:51:37.699Z,24.46
2023-05-20T10:52:37.985Z,24.46
2023-05-20T10:53:38.302Z,24.43
2023-05-20T10:54:38.612Z,24.45
2023-05-20T10:55:38.934Z,24.45
2023-05-20T10:56:39.216Z,24.46
2023-05-20T10:57:39.561Z,24.46
2023-05-20T10:58:39.733Z,24.45
2023-05-20T10:59:40.051Z,24.46
2023-05-20T11:00:40.393Z,24.45
2023-05-20T11:01:40.784Z,24.45
2023-05-20T11:02:40.953Z,24.45
2023-05-20T11:03:41.237Z,24.43
2023-05-20T11:04:41.359Z,24.43
2023-05-20T11:05:41.662Z,24.43
2023-05-20T11:06:41.987Z,24.45
2023-05-20T11:07:42.297Z,24.42
2023-05-20T11:08:42.595Z,24.42
2023-05-20T11:09:42.895Z,24.42
2023-05-20T11:10:43.162Z,24.40
2023-05-20T11:11:43.470Z,24.40
2023-05-20T11:12:43.814Z,24.40
2023-05-20T11:13:44.186Z,24.39
2023-05-20T11:14:44.333Z,24.40
2023-05-20T11:15:44.642Z,24.39
2023-05-20T11:16:44.992Z,24.37
2023-05-20T11:17:45.333Z,24.39
2023-05-20T11:18:45.641Z,24.37
2023-05-20T11:19:45.932Z,24.39
2023-05-20T11:20:46.237Z,24.39
2023-05-20T11:21:46.540Z,24.39
2023-05-20T11:22:46.850Z,24.37
2023-05-20T11:23:47.173Z,24.37
2023-05-20T11:24:47.512Z,24.37
2023-05-20T11:25:47.800Z,24.37
2023-05-20T11:26:48.108Z,24.37
2023-05-20T11:27:48.402Z,24.37
2023-05-20T11:28:48.720Z,24.37
2023-05-20T11:29:49.012Z,24.35
2023-05-20T11:30:49.337Z,24.35
2023-05-20T11:31:49.699Z,24.35
2023-05-20T11:32:50.059Z,24.32
2023-05-20T11:33:50.209Z,24.34
2023-05-20T11:34:50.516Z,24.34
2023-05-20T11:35:50.822Z,24.34
2023-05-20T11:36:51.140Z,24.34
2023-05-20T11:37:51.444Z,24.34
2023-05-20T11:38:51.810Z,24.32
2023-05-20T11:39:52.836Z,24.31
2023-05-20T11:40:52.401Z,24.31
2023-05-20T11:41:52.679Z,24.31
2023-05-20T11:42:52.993Z,24.31
2023-05-20T11:43:53.368Z,24.30
2023-05-20T11:44:53.577Z,24.30
2023-05-20T11:45:53.890Z,24.28
2023-05-20T11:46:54.192Z,24.28
2023-05-20T11:47:54.514Z,24.28
2023-05-20T11:48:54.821Z,24.28
2023-05-20T11:49:55.104Z,24.25
2023-05-20T11:50:55.420Z,24.25
2023-05-20T11:51:55.732Z,24.25
2023-05-20T11:52:56.059Z,24.25
2023-05-20T11:53:56.367Z,24.24
2023-05-20T11:54:56.686Z,24.25
2023-05-20T11:55:57.015Z,24.27
2023-05-20T11:56:57.338Z,24.25
2023-05-20T11:57:57.649Z,24.27
2023-05-20T11:58:57.976Z,24.25
2023-05-20T11:59:58.281Z,24.24
2023-05-20T12:01:05.634Z,24.24
2023-05-20T12:01:59.849Z,24.24
2023-05-20T12:02:59.327Z,24.24
2023-05-20T12:03:59.578Z,24.22
2023-05-20T12:04:59.865Z,24.24
2023-05-20T12:06:00.165Z,24.22
2023-05-20T12:07:00.481Z,24.22
2023-05-20T12:08:00.802Z,24.22
2023-05-20T12:09:01.077Z,24.22
2023-05-20T12:10:01.378Z,24.21
2023-05-20T12:11:01.715Z,24.21
2023-05-20T12:12:02.008Z,24.22
2023-05-20T12:13:02.316Z,24.22
2023-05-20T12:14:02.622Z,24.20
2023-05-20T12:15:02.932Z,24.22
2023-05-20T12:16:03.277Z,24.21
2023-05-20T12:17:03.648Z,24.21
2023-05-20T12:18:03.961Z,24.20
2023-05-20T12:19:04.357Z,24.21
2023-05-20T12:20:04.585Z,24.20
2023-05-20T12:21:04.859Z,24.21
2023-05-20T12:22:05.165Z,24.21
2023-05-20T12:23:05.431Z,24.20
2023-05-20T12:24:05.708Z,24.20
2023-05-20T12:25:06.018Z,24.20
2023-05-20T12:26:06.319Z,24.21
2023-05-20T12:27:06.648Z,24.20
2023-05-20T12:28:06.940Z,24.20
2023-05-20T12:29:07.224Z,24.20
2023-05-20T12:30:07.524Z,24.18
2023-05-20T12:31:07.875Z,24.20
2023-05-20T12:32:08.245Z,24.21
2023-05-20T12:33:08.583Z,24.18
2023-05-20T12:34:08.872Z,24.20
2023-05-20T12:35:09.164Z,24.18
2023-05-20T12:36:09.438Z,24.18
2023-05-20T12:37:09.749Z,24.18
2023-05-20T12:38:10.079Z,24.18
2023-05-20T12:39:10.502Z,24.18
2023-05-20T12:40:10.749Z,24.20
2023-05-20T12:41:11.052Z,24.20
2023-05-20T12:42:11.377Z,24.18
2023-05-20T12:43:11.680Z,24.21
2023-05-20T12:44:11.998Z,24.21
2023-05-20T12:45:12.326Z,24.21
2023-05-20T12:46:12.716Z,24.21
2023-05-20T12:47:12.949Z,24.21
2023-05-20T12:48:13.361Z,24.21
2023-05-20T12:49:13.449Z,24.21
2023-05-20T12:50:13.786Z,24.22
2023-05-20T12:51:14.085Z,24.22
2023-05-20T12:52:22.369Z,24.21
2023-05-20T12:53:15.697Z,24.21
2023-05-20T12:54:14.960Z,24.22
2023-05-20T12:55:15.267Z,24.22
2023-05-20T12:56:15.584Z,24.22